Time;durP1;ratioP1;P1;durP2;ratioP2;P2;SDS_P1;SDS_P2;PMS_P1;PMS_P2;Temp;Humidity;BMP_temperature;BMP_pressure;BME280_temperature;BME280_humidity;BME280_pressure;Samples;Min_cycle;Max_cycle;Signal;HPM_P1;HPM_P2
2021/06/13 00:01:14;;;;;;;6.20;3.55;;;17.90;73.30;;;;;;4930902;29;20032;-72
2021/06/13 00:03:41;;;;;;;4.70;3.38;;;18.00;74.50;;;;;;4929750;29;20111;-73
2021/06/13 00:06:09;;;;;;;3.40;2.88;;;18.20;74.20;;;;;;4927168;29;20050;-73
2021/06/13 00:08:36;;;;;;;4.60;3.28;;;18.40;72.10;;;;;;4927882;29;20566;-73
2021/06/13 00:11:04;;;;;;;3.55;2.70;;;18.50;72.30;;;;;;4896593;29;21439;-72
2021/06/13 00:13:31;;;;;;;3.65;3.15;;;18.70;73.30;;;;;;4926703;29;20040;-73
2021/06/13 00:15:59;;;;;;;3.53;2.50;;;18.70;72.30;;;;;;4926092;29;20150;-72
2021/06/13 00:18:26;;;;;;;3.47;2.55;;;18.60;70.70;;;;;;4929173;29;20506;-72
2021/06/13 00:20:54;;;;;;;2.92;1.92;;;18.40;72.00;;;;;;4924191;29;20132;-72
2021/06/13 00:23:22;;;;;;;2.47;1.80;;;18.50;72.30;;;;;;4923435;29;20040;-73
2021/06/13 00:25:50;;;;;;;2.00;1.60;;;18.80;73.40;;;;;;4930683;29;20024;-72
2021/06/13 00:28:18;;;;;;;2.22;1.42;;;19.00;71.40;;;;;;4929454;29;20028;-73
2021/06/13 00:30:45;;;;;;;1.50;1.35;;;19.70;68.80;;;;;;4930171;29;20028;-72
2021/06/13 00:33:13;;;;;;;1.75;1.10;;;20.00;67.70;;;;;;4926464;29;20106;-72
2021/06/13 00:35:41;;;;;;;1.60;1.13;;;20.00;65.60;;;;;;4928465;29;20052;-71
2021/06/13 00:38:08;;;;;;;2.35;1.20;;;20.00;66.30;;;;;;4924583;29;20059;-71
2021/06/13 00:40:36;;;;;;;7.82;1.52;;;20.40;65.70;;;;;;4919082;29;20055;-72
2021/06/13 00:43:05;;;;;;;2.80;1.33;;;20.70;65.30;;;;;;4926761;29;20040;-72
2021/06/13 00:45:32;;;;;;;2.25;1.35;;;20.70;65.10;;;;;;4926031;29;20364;-72
2021/06/13 00:48:00;;;;;;;2.05;0.70;;;20.90;65.20;;;;;;4923644;29;20055;-74
2021/06/13 00:50:34;;;;;;;1.70;0.50;;;21.30;62.20;;;;;;4926297;29;20027;-72
2021/06/13 00:53:05;;;;;;;1.13;0.90;;;21.60;62.20;;;;;;4923119;29;20031;-73
2021/06/13 00:55:33;;;;;;;1.30;0.70;;;21.70;59.40;;;;;;4924837;29;20096;-73
2021/06/13 00:58:05;;;;;;;1.02;0.63;;;21.70;59.40;;;;;;4924643;29;20035;-73
2021/06/13 01:00:33;;;;;;;1.55;0.98;;;22.00;57.80;;;;;;4923668;29;20166;-73
2021/06/13 01:03:00;;;;;;;1.50;1.20;;;22.20;58.50;;;;;;4927101;29;20047;-74
2021/06/13 01:05:29;;;;;;;0.93;0.40;;;22.50;56.40;;;;;;4924757;29;20062;-75
2021/06/13 01:08:27;;;;;;;1.13;0.57;;;22.10;54.90;;;;;;4931383;29;20032;-72
2021/06/13 01:10:57;;;;;;;1.80;0.65;;;22.00;54.00;;;;;;4923109;29;20745;-73
2021/06/13 01:13:33;;;;;;;0.80;0.60;;;22.40;54.00;;;;;;4912601;29;20048;-72
2021/06/13 01:16:08;;;;;;;;;;;22.60;54.50;;;;;;4930230;29;20390;-74
2021/06/13 01:18:48;;;;;;;0.73;0.50;;;22.60;55.50;;;;;;4925701;29;19929;-73
2021/06/13 01:21:50;;;;;;;0.50;0.38;;;22.90;53.20;;;;;;4925050;29;20060;-72
2021/06/13 01:24:38;;;;;;;1.50;0.90;;;22.70;51.50;;;;;;4888871;29;20332;-73
2021/06/13 01:27:14;;;;;;;0.75;0.50;;;23.40;50.30;;;;;;4925599;29;20262;-73
2021/06/13 01:29:45;;;;;;;1.50;0.60;;;23.20;51.00;;;;;;4925614;29;20046;-74
2021/06/13 01:32:31;;;;;;;0.85;0.40;;;24.00;53.30;;;;;;4929523;29;20023;-72
2021/06/13 01:35:06;;;;;;;0.82;0.40;;;24.50;51.60;;;;;;4924787;29;20035;-72
2021/06/13 01:37:36;;;;;;;0.55;0.30;;;24.60;47.10;;;;;;4925266;29;20066;-72
2021/06/13 01:40:13;;;;;;;1.42;0.38;;;24.20;48.00;;;;;;4924820;29;20032;-73
2021/06/13 01:42:46;;;;;;;1.52;0.30;;;23.80;50.10;;;;;;4912803;29;20043;-71
2021/06/13 01:45:19;;;;;;;0.63;0.40;;;23.40;49.50;;;;;;4923909;29;20092;-71
2021/06/13 01:47:48;;;;;;;0.63;0.32;;;23.50;51.70;;;;;;4925881;29;20031;-72
2021/06/13 01:50:16;;;;;;;1.42;0.40;;;22.90;50.40;;;;;;4923410;29;20036;-70
2021/06/13 01:52:48;;;;;;;0.50;0.20;;;22.50;53.20;;;;;;4923913;29;20042;-71
2021/06/13 01:55:19;;;;;;;2.17;0.80;;;23.10;51.40;;;;;;4922775;29;20031;-69
2021/06/13 01:57:48;;;;;;;1.35;0.32;;;23.60;51.60;;;;;;4927526;29;20035;-71
2021/06/13 02:00:18;;;;;;;1.38;0.38;;;23.70;49.90;;;;;;4923283;29;20039;-70
2021/06/13 02:02:48;;;;;;;0.35;0.22;;;23.90;50.30;;;;;;4924478;29;20068;-71
2021/06/13 02:05:17;;;;;;;2.53;1.25;;;24.50;51.40;;;;;;4925183;29;20339;-73
2021/06/13 02:07:46;;;;;;;1.48;0.50;;;24.50;52.20;;;;;;4927498;29;20050;-72
2021/06/13 02:10:18;;;;;;;0.80;0.50;;;24.60;49.50;;;;;;4924318;29;20023;-72
2021/06/13 02:12:47;;;;;;;1.05;0.40;;;24.80;49.30;;;;;;4923725;29;20039;-71
2021/06/13 02:15:19;;;;;;;1.60;0.50;;;24.70;48.80;;;;;;4916822;29;20042;-72
2021/06/13 02:17:48;;;;;;;0.80;0.30;;;24.80;50.90;;;;;;4924334;29;20475;-72
2021/06/13 02:20:24;;;;;;;0.95;0.32;;;24.80;48.70;;;;;;4923762;29;20067;-71
2021/06/13 02:22:52;;;;;;;;;;;25.00;48.70;;;;;;4922956;29;20043;-72
2021/06/13 02:25:24;;;;;;;0.57;0.20;;;25.20;49.60;;;;;;4903819;29;19926;-72
2021/06/13 02:27:56;;;;;;;0.50;0.40;;;24.70;48.50;;;;;;4922701;29;20514;-71
2021/06/13 02:30:26;;;;;;;0.32;0.22;;;25.20;50.10;;;;;;4923310;29;20031;-71
2021/06/13 02:32:59;;;;;;;1.13;0.90;;;25.60;49.40;;;;;;4923453;29;20481;-72
2021/06/13 02:35:28;;;;;;;1.02;0.40;;;25.60;48.30;;;;;;4919440;29;20040;-71
2021/06/13 02:37:57;;;;;;;0.90;0.60;;;25.30;46.80;;;;;;4924827;29;20023;-72
2021/06/13 02:40:25;;;;;;;0.93;0.70;;;25.60;47.70;;;;;;4920731;29;20934;-70
2021/06/13 02:42:53;;;;;;;0.40;0.30;;;25.50;46.00;;;;;;4923674;29;20082;-71
2021/06/13 02:45:21;;;;;;;0.25;0.15;;;25.30;47.50;;;;;;4909803;28;20035;-71
2021/06/13 02:47:50;;;;;;;0.40;0.40;;;24.20;48.80;;;;;;4924205;29;20038;-70
2021/06/13 02:50:22;;;;;;;0.40;0.20;;;24.30;49.80;;;;;;4921878;29;20027;-71
2021/06/13 02:53:10;;;;;;;0.30;0.20;;;24.30;50.10;;;;;;4926912;29;20364;-70
2021/06/13 02:56:00;;;;;;;0.45;0.13;;;24.60;49.80;;;;;;4922965;29;20060;-70
2021/06/13 02:58:34;;;;;;;0.85;0.28;;;24.70;48.80;;;;;;4895007;29;20052;-70
2021/06/13 03:01:02;;;;;;;0.88;0.30;;;24.90;50.10;;;;;;4923106;29;20126;-72
2021/06/13 03:03:33;;;;;;;1.33;0.10;;;24.70;47.20;;;;;;4922276;29;20039;-70
2021/06/13 03:06:07;;;;;;;1.20;0.22;;;24.40;46.90;;;;;;4924425;29;20049;-71
2021/06/13 03:08:35;;;;;;;0.88;0.13;;;24.00;47.70;;;;;;4923996;29;20068;-71
2021/06/13 03:11:06;;;;;;;0.43;0.32;;;23.80;49.20;;;;;;4921711;29;20031;-70
2021/06/13 03:13:34;;;;;;;0.10;0.10;;;23.80;48.40;;;;;;4921100;29;20032;-71
2021/06/13 03:16:03;;;;;;;0.20;0.15;;;23.70;48.50;;;;;;4911109;29;20045;-70
2021/06/13 03:18:31;;;;;;;0.20;0.20;;;23.60;48.50;;;;;;4926297;29;20032;-70
2021/06/13 03:21:00;;;;;;;1.38;0.20;;;23.40;49.20;;;;;;4926071;29;20035;-69
2021/06/13 03:23:32;;;;;;;0.35;0.20;;;23.10;49.90;;;;;;4926272;29;20051;-70
2021/06/13 03:26:03;;;;;;;0.30;0.20;;;22.70;51.20;;;;;;4927355;29;20034;-72
2021/06/13 03:28:33;;;;;;;0.47;0.10;;;22.40;50.70;;;;;;4924787;29;20024;-71
2021/06/13 03:31:02;;;;;;;0.50;0.10;;;22.30;49.90;;;;;;4924929;29;20028;-71
2021/06/13 03:33:31;;;;;;;0.28;0.20;;;21.80;52.00;;;;;;4928680;29;20031;-71
2021/06/13 03:36:00;;;;;;;0.40;0.08;;;21.50;56.20;;;;;;4927803;29;20024;-70
2021/06/13 03:38:29;;;;;;;1.55;0.22;;;21.20;53.50;;;;;;4927719;29;20027;-70
2021/06/13 03:40:59;;;;;;;0.10;0.10;;;20.80;54.00;;;;;;4924962;29;20031;-70
2021/06/13 03:43:27;;;;;;;1.02;0.10;;;20.80;57.70;;;;;;4925145;29;20036;-71
2021/06/13 03:45:55;;;;;;;0.20;0.20;;;20.50;55.80;;;;;;4919309;29;20039;-72
2021/06/13 03:48:24;;;;;;;0.10;0.00;;;20.50;56.60;;;;;;4925328;29;20086;-70
2021/06/13 03:50:53;;;;;;;0.77;0.20;;;20.20;56.50;;;;;;4926439;29;20111;-71
2021/06/13 03:53:21;;;;;;;0.30;0.10;;;20.00;57.60;;;;;;4928162;29;20020;-69
2021/06/13 03:55:53;;;;;;;0.17;0.10;;;19.90;57.10;;;;;;4928223;29;20121;-69
2021/06/13 03:58:27;;;;;;;0.63;0.10;;;19.70;56.40;;;;;;4926584;29;20650;-70
2021/06/13 04:00:56;;;;;;;0.10;0.08;;;19.70;56.40;;;;;;4926444;29;20503;-69
2021/06/13 04:03:26;;;;;;;0.15;0.15;;;19.50;56.90;;;;;;4924216;29;20068;-71
2021/06/13 04:05:54;;;;;;;1.02;0.15;;;19.30;57.40;;;;;;4911644;29;20111;-71
2021/06/13 04:08:23;;;;;;;0.35;0.20;;;19.20;58.10;;;;;;4926300;29;20451;-71
2021/06/13 04:10:52;;;;;;;0.08;0.08;;;19.10;58.00;;;;;;4923119;29;20035;-71
2021/06/13 04:13:21;;;;;;;1.27;0.20;;;18.90;59.60;;;;;;4922903;29;20028;-70
2021/06/13 04:15:50;;;;;;;0.50;0.10;;;18.90;59.90;;;;;;4921221;29;20483;-70
2021/06/13 04:18:18;;;;;;;0.20;0.00;;;18.90;59.30;;;;;;4912854;29;20054;-71
2021/06/13 04:20:47;;;;;;;0.10;0.10;;;18.80;60.00;;;;;;4924541;29;20032;-69
2021/06/13 04:23:16;;;;;;;0.30;0.10;;;18.70;60.60;;;;;;4926230;29;20028;-71
2021/06/13 04:25:44;;;;;;;0.55;0.10;;;18.50;60.20;;;;;;4923372;29;20027;-71
2021/06/13 04:28:16;;;;;;;0.30;0.10;;;18.50;61.60;;;;;;4926376;29;20047;-70
2021/06/13 04:31:03;;;;;;;0.25;0.10;;;18.40;61.60;;;;;;4924997;29;20131;-70
2021/06/13 04:33:32;;;;;;;0.30;0.10;;;18.30;61.90;;;;;;4926134;29;20028;-71
2021/06/13 04:36:00;;;;;;;1.08;0.10;;;18.30;60.80;;;;;;4930520;29;20106;-72
2021/06/13 04:38:29;;;;;;;0.17;0.15;;;18.30;62.00;;;;;;4923763;29;20028;-71
2021/06/13 04:40:57;;;;;;;0.20;0.15;;;18.40;62.40;;;;;;4927793;29;20563;-74
2021/06/13 04:43:24;;;;;;;0.20;0.20;;;18.30;62.00;;;;;;4929657;29;20159;-71
2021/06/13 04:45:51;;;;;;;0.65;0.10;;;18.30;62.00;;;;;;4926087;29;20079;-70
2021/06/13 04:48:19;;;;;;;1.20;0.35;;;18.20;61.20;;;;;;4898694;29;20035;-71
2021/06/13 04:50:47;;;;;;;0.38;0.30;;;18.20;62.10;;;;;;4929280;29;20075;-71
2021/06/13 04:53:14;;;;;;;0.75;0.47;;;18.10;63.30;;;;;;4927077;29;20098;-71
2021/06/13 04:55:50;;;;;;;1.45;0.20;;;18.10;62.60;;;;;;4925191;29;20035;-70
2021/06/13 04:58:26;;;;;;;1.20;0.40;;;18.00;63.60;;;;;;4892927;29;20059;-71
2021/06/13 05:00:53;;;;;;;0.38;0.10;;;17.90;63.30;;;;;;4930236;29;20127;-71
2021/06/13 05:03:21;;;;;;;0.60;0.40;;;17.90;63.20;;;;;;4928463;29;20506;-71
2021/06/13 05:05:48;;;;;;;1.35;0.40;;;17.90;63.90;;;;;;4922486;29;20027;-70
2021/06/13 05:08:16;;;;;;;1.88;0.60;;;17.80;63.30;;;;;;4929264;29;20032;-71
2021/06/13 05:10:43;;;;;;;0.32;0.30;;;17.80;64.20;;;;;;4924202;29;20028;-71
2021/06/13 05:13:16;;;;;;;0.52;0.20;;;17.80;63.70;;;;;;4928689;29;20039;-71
2021/06/13 05:15:44;;;;;;;0.20;0.20;;;17.70;64.00;;;;;;4922356;29;20463;-72
2021/06/13 05:18:12;;;;;;;0.70;0.40;;;17.70;64.30;;;;;;4915131;29;20530;-72
2021/06/13 05:20:39;;;;;;;0.50;0.20;;;17.60;64.30;;;;;;4921752;29;20043;-72
2021/06/13 05:23:07;;;;;;;0.52;0.10;;;17.60;64.80;;;;;;4929558;29;20066;-71
2021/06/13 05:25:37;;;;;;;0.30;0.30;;;17.60;64.70;;;;;;4922226;29;20028;-71
2021/06/13 05:28:07;;;;;;;0.30;0.28;;;17.60;65.50;;;;;;4928772;29;20036;-69
2021/06/13 05:30:35;;;;;;;1.10;1.00;;;17.60;65.60;;;;;;4908522;29;20051;-70
2021/06/13 05:33:04;;;;;;;3.28;2.97;;;17.50;64.80;;;;;;4929454;29;20047;-71
2021/06/13 05:35:31;;;;;;;2.67;1.40;;;17.40;65.70;;;;;;4926887;29;20078;-70
2021/06/13 05:37:58;;;;;;;0.47;0.30;;;17.40;65.90;;;;;;4925161;29;20110;-71
2021/06/13 05:40:28;;;;;;;1.50;0.30;;;17.40;65.50;;;;;;4927222;29;20039;-71
2021/06/13 05:42:56;;;;;;;0.30;0.20;;;17.40;66.10;;;;;;4927964;29;20130;-72
2021/06/13 05:45:25;;;;;;;0.60;0.20;;;17.40;65.50;;;;;;4922671;29;20486;-72
2021/06/13 05:47:54;;;;;;;0.55;0.22;;;17.40;65.50;;;;;;4928717;29;20493;-72
2021/06/13 05:50:22;;;;;;;0.43;0.20;;;17.40;65.90;;;;;;4916990;29;20039;-71
2021/06/13 05:52:49;;;;;;;0.20;0.20;;;17.30;65.60;;;;;;4925480;29;20032;-70
2021/06/13 05:55:18;;;;;;;0.95;0.40;;;17.30;65.50;;;;;;4926835;29;20082;-72
2021/06/13 05:57:47;;;;;;;0.90;0.40;;;17.30;65.70;;;;;;4926405;29;20027;-70
2021/06/13 06:00:26;;;;;;;0.68;0.38;;;17.40;65.30;;;;;;4925217;29;20024;-71
2021/06/13 06:02:54;;;;;;;0.25;0.20;;;17.40;65.50;;;;;;4925948;29;20039;-71
2021/06/13 06:05:22;;;;;;;0.30;0.30;;;17.40;65.20;;;;;;4924138;29;20031;-70
2021/06/13 06:07:51;;;;;;;0.38;0.20;;;17.40;66.10;;;;;;4931385;29;20478;-71
2021/06/13 06:10:21;;;;;;;0.32;0.20;;;17.40;65.70;;;;;;4927709;29;20032;-71
2021/06/13 06:12:49;;;;;;;0.57;0.20;;;17.50;64.80;;;;;;4924597;29;20052;-71
2021/06/13 06:15:19;;;;;;;0.88;0.52;;;17.50;64.80;;;;;;4925892;29;20407;-72
2021/06/13 06:17:47;;;;;;;1.45;0.70;;;17.60;64.90;;;;;;4931185;29;20023;-72
2021/06/13 06:20:16;;;;;;;1.10;0.47;;;17.60;65.40;;;;;;4911240;29;20911;-70
2021/06/13 06:22:44;;;;;;;1.92;0.88;;;17.60;65.00;;;;;;4928860;29;20035;-71
2021/06/13 06:25:12;;;;;;;1.67;0.70;;;17.60;65.10;;;;;;4923072;29;20383;-71
2021/06/13 06:27:40;;;;;;;11.27;9.38;;;17.50;65.90;;;;;;4927541;29;20067;-70
2021/06/13 06:30:11;;;;;;;18.30;14.35;;;17.40;65.20;;;;;;4926868;29;20039;-72
2021/06/13 06:32:40;;;;;;;18.27;12.05;;;17.10;65.90;;;;;;4907468;29;20140;-71
2021/06/13 06:35:09;;;;;;;19.63;12.65;;;16.80;68.10;;;;;;4927127;29;20118;-70
2021/06/13 06:37:38;;;;;;;19.50;11.93;;;16.60;68.00;;;;;;4932243;29;20479;-71
2021/06/13 06:40:08;;;;;;;22.35;13.40;;;16.40;68.90;;;;;;4926536;29;20417;-72
2021/06/13 06:42:37;;;;;;;11.73;6.57;;;16.30;69.50;;;;;;4925987;29;20486;-71
2021/06/13 06:45:07;;;;;;;11.98;5.40;;;16.20;69.50;;;;;;4927363;29;20555;-71
2021/06/13 06:47:34;;;;;;;7.97;5.57;;;16.10;70.30;;;;;;4926350;29;20055;-71
2021/06/13 06:50:02;;;;;;;12.88;7.75;;;16.00;70.90;;;;;;4916403;29;20040;-71
2021/06/13 06:52:30;;;;;;;10.23;7.13;;;15.80;72.20;;;;;;4925699;29;20036;-72
2021/06/13 06:54:58;;;;;;;6.72;4.57;;;15.70;71.90;;;;;;4925476;29;20032;-72
2021/06/13 06:57:27;;;;;;;3.22;2.22;;;15.60;72.80;;;;;;4921277;29;20087;-73
2021/06/13 06:59:54;;;;;;;1.27;0.30;;;15.50;73.20;;;;;;4924796;29;20031;-72
2021/06/13 07:02:22;;;;;;;0.75;0.75;;;15.30;73.00;;;;;;4920636;29;20156;-73
2021/06/13 07:04:50;;;;;;;3.05;1.20;;;15.30;74.20;;;;;;4926044;29;20036;-73
2021/06/13 07:07:17;;;;;;;0.40;0.30;;;15.20;74.10;;;;;;4927732;29;20355;-72
2021/06/13 07:09:45;;;;;;;1.50;0.40;;;15.10;75.00;;;;;;4928221;29;20028;-70
2021/06/13 07:12:12;;;;;;;0.30;0.20;;;15.00;75.80;;;;;;4923796;29;20028;-71
2021/06/13 07:14:39;;;;;;;2.25;1.40;;;14.90;76.20;;;;;;4903465;29;20067;-72
2021/06/13 07:17:07;;;;;;;2.13;1.50;;;14.80;76.30;;;;;;4924528;29;20195;-74
2021/06/13 07:19:34;;;;;;;3.45;1.95;;;14.70;76.40;;;;;;4926378;29;20478;-73
2021/06/13 07:22:02;;;;;;;1.75;1.13;;;14.70;77.30;;;;;;4912811;29;20049;-73
2021/06/13 07:24:29;;;;;;;2.25;1.50;;;14.60;77.00;;;;;;4925025;29;20047;-72
2021/06/13 07:26:57;;;;;;;1.90;1.20;;;14.50;77.00;;;;;;4926551;29;20399;-71
2021/06/13 07:29:24;;;;;;;1.85;0.95;;;14.40;76.90;;;;;;4926054;29;20533;-72
2021/06/13 07:31:52;;;;;;;1.90;0.77;;;14.40;76.80;;;;;;4925889;29;20098;-72
2021/06/13 07:34:20;;;;;;;1.65;0.60;;;14.30;77.30;;;;;;4929644;29;20036;-72
2021/06/13 07:36:47;;;;;;;1.13;0.43;;;14.20;77.20;;;;;;4928166;29;20028;-71
2021/06/13 07:39:15;;;;;;;1.40;0.40;;;14.20;76.90;;;;;;4923569;29;20032;-73
2021/06/13 07:41:42;;;;;;;0.45;0.20;;;14.20;76.80;;;;;;4930214;29;20104;-70
2021/06/13 07:44:10;;;;;;;0.63;0.30;;;14.10;77.40;;;;;;4925434;29;20045;-71
2021/06/13 07:46:37;;;;;;;0.82;0.30;;;13.90;78.00;;;;;;4928526;29;20870;-71
2021/06/13 07:49:05;;;;;;;0.50;0.28;;;13.80;77.70;;;;;;4923980;29;20487;-70
2021/06/13 07:51:33;;;;;;;0.35;0.20;;;13.80;77.70;;;;;;4913970;29;20040;-71
2021/06/13 07:54:00;;;;;;;5.70;1.52;;;13.70;77.60;;;;;;4923668;29;20028;-72
2021/06/13 07:56:28;;;;;;;3.80;2.83;;;13.70;78.40;;;;;;4925515;29;20191;-72
2021/06/13 07:58:55;;;;;;;4.88;2.72;;;13.70;78.40;;;;;;4923556;29;20369;-71
2021/06/13 08:01:22;;;;;;;2.33;1.60;;;13.70;78.90;;;;;;4920402;29;20047;-71
2021/06/13 08:03:50;;;;;;;4.05;1.80;;;13.60;79.30;;;;;;4926684;29;20487;-72
2021/06/13 08:06:18;;;;;;;4.20;2.53;;;13.50;79.10;;;;;;4927213;29;20493;-70
2021/06/13 08:08:45;;;;;;;4.80;3.20;;;13.50;79.70;;;;;;4929863;29;20070;-70
2021/06/13 08:11:13;;;;;;;4.85;3.47;;;13.40;80.00;;;;;;4925550;29;20118;-70
2021/06/13 08:13:40;;;;;;;4.43;2.53;;;13.30;80.30;;;;;;4931199;29;20501;-71
2021/06/13 08:16:08;;;;;;;3.63;2.30;;;13.20;80.70;;;;;;4926094;29;20154;-72
2021/06/13 08:18:36;;;;;;;5.35;2.88;;;13.10;81.80;;;;;;4929749;29;20035;-72
2021/06/13 08:21:03;;;;;;;5.15;2.70;;;13.10;82.50;;;;;;4930368;29;20030;-73
2021/06/13 08:23:31;;;;;;;6.38;2.60;;;13.00;83.00;;;;;;4918528;29;20176;-72
2021/06/13 08:26:02;;;;;;;5.68;4.22;;;12.90;83.70;;;;;;4930554;29;20028;-71
2021/06/13 08:28:30;;;;;;;5.88;4.82;;;12.90;84.10;;;;;;4928814;29;20036;-72
2021/06/13 08:30:58;;;;;;;8.88;4.60;;;12.90;84.40;;;;;;4926790;29;20032;-75
2021/06/13 08:33:26;;;;;;;6.50;4.10;;;12.80;84.40;;;;;;4925563;29;20056;-73
2021/06/13 08:35:53;;;;;;;3.38;2.17;;;12.80;84.70;;;;;;4925720;29;20031;-73
2021/06/13 08:38:23;;;;;;;2.95;1.52;;;12.70;85.40;;;;;;4926215;29;20032;-73
2021/06/13 08:40:51;;;;;;;2.88;1.45;;;12.70;84.80;;;;;;4932220;29;20071;-74
2021/06/13 08:43:19;;;;;;;3.28;1.55;;;12.70;85.20;;;;;;4922610;29;20047;-74
2021/06/13 08:45:49;;;;;;;2.67;1.52;;;12.60;85.40;;;;;;4927653;29;20066;-75
2021/06/13 08:48:16;;;;;;;1.63;1.13;;;12.60;86.20;;;;;;4926440;29;20032;-73
2021/06/13 08:50:44;;;;;;;2.03;1.30;;;12.50;86.50;;;;;;4932157;29;20434;-72
2021/06/13 08:53:12;;;;;;;2.35;1.23;;;12.40;86.50;;;;;;4915876;29;20061;-73
2021/06/13 08:55:39;;;;;;;1.30;0.95;;;12.40;87.10;;;;;;4926506;29;20066;-75
2021/06/13 08:58:08;;;;;;;1.98;1.30;;;12.30;87.20;;;;;;4929445;29;20032;-73
2021/06/13 09:00:35;;;;;;;3.40;1.40;;;12.30;87.70;;;;;;4929373;29;20047;-72
2021/06/13 09:03:06;;;;;;;3.50;1.92;;;12.30;87.40;;;;;;4924302;29;20060;-72
2021/06/13 09:05:34;;;;;;;3.90;2.22;;;12.20;87.20;;;;;;4929092;29;20043;-71
2021/06/13 09:08:12;;;;;;;2.28;1.80;;;12.20;87.90;;;;;;4926546;29;20383;-73
2021/06/13 09:10:42;;;;;;;1.85;1.42;;;12.10;87.50;;;;;;4924675;29;20031;-73
2021/06/13 09:13:21;;;;;;;5.65;3.88;;;12.10;87.90;;;;;;4925731;29;20032;-71
2021/06/13 09:15:52;;;;;;;5.63;3.17;;;12.00;88.20;;;;;;4923890;29;20110;-72
2021/06/13 09:18:39;;;;;;;4.97;3.78;;;12.00;88.40;;;;;;4925972;29;20036;-71
2021/06/13 09:21:23;;;;;;;3.47;2.88;;;12.00;88.80;;;;;;4927210;29;20032;-73
2021/06/13 09:23:50;;;;;;;5.32;3.72;;;11.90;89.60;;;;;;4928385;28;20043;-71
2021/06/13 09:26:20;;;;;;;9.32;6.13;;;11.80;89.80;;;;;;4928931;29;20058;-71
2021/06/13 09:28:51;;;;;;;9.60;5.82;;;11.70;90.00;;;;;;4924740;29;20035;-72
2021/06/13 09:31:24;;;;;;;6.65;4.35;;;11.60;90.20;;;;;;4926259;29;20483;-69
2021/06/13 09:33:54;;;;;;;4.38;3.10;;;11.50;90.30;;;;;;4925886;29;20040;-71
2021/06/13 09:36:25;;;;;;;3.25;2.25;;;11.50;90.30;;;;;;4926136;29;20032;-72
2021/06/13 09:39:01;;;;;;;3.30;2.63;;;11.50;90.20;;;;;;4926637;29;20127;-71
2021/06/13 09:41:29;;;;;;;3.28;2.30;;;11.50;90.30;;;;;;4926919;29;20027;-71
2021/06/13 09:44:04;;;;;;;2.72;1.90;;;11.40;90.00;;;;;;4928106;29;20047;-70
2021/06/13 09:46:39;;;;;;;3.05;2.22;;;11.50;90.20;;;;;;4926023;29;20090;-73
2021/06/13 09:49:09;;;;;;;5.63;2.97;;;11.40;89.80;;;;;;4927326;29;20074;-71
2021/06/13 09:51:48;;;;;;;25.88;14.18;;;11.50;89.40;;;;;;4927935;29;20059;-71
2021/06/13 09:54:21;;;;;;;43.67;23.98;;;11.40;89.40;;;;;;4927557;29;20020;-70
2021/06/13 09:56:50;;;;;;;18.80;11.55;;;11.40;89.90;;;;;;4924915;29;20131;-71
2021/06/13 09:59:28;;;;;;;7.57;4.10;;;11.40;89.80;;;;;;4926133;29;20023;-71
2021/06/13 10:01:59;;;;;;;5.90;2.67;;;11.40;89.50;;;;;;4924184;29;20076;-71
2021/06/13 10:04:30;;;;;;;3.35;2.13;;;11.40;89.40;;;;;;4926119;29;20044;-71
2021/06/13 10:07:02;;;;;;;3.95;1.98;;;11.40;89.40;;;;;;4925212;29;20071;-70
2021/06/13 10:09:40;;;;;;;4.03;2.10;;;11.30;89.50;;;;;;4924660;29;20058;-72
2021/06/13 10:12:10;;;;;;;5.43;2.40;;;11.30;89.70;;;;;;4928118;29;20450;-71
2021/06/13 10:14:39;;;;;;;4.55;2.92;;;11.30;89.40;;;;;;4908791;29;20035;-72
2021/06/13 10:17:07;;;;;;;4.28;2.10;;;11.30;89.50;;;;;;4925721;29;20470;-72
2021/06/13 10:19:43;;;;;;;3.15;1.60;;;11.30;89.50;;;;;;4921918;29;20028;-71
2021/06/13 10:22:12;;;;;;;3.13;1.48;;;11.40;88.90;;;;;;4927766;29;20031;-72
2021/06/13 10:24:42;;;;;;;2.53;1.58;;;11.40;88.90;;;;;;4930983;29;20058;-73
2021/06/13 10:27:13;;;;;;;1.70;0.90;;;11.40;88.70;;;;;;4915758;29;20048;-72
2021/06/13 10:29:43;;;;;;;1.50;0.95;;;11.40;88.40;;;;;;4927232;29;20035;-72
2021/06/13 10:32:11;;;;;;;1.05;0.80;;;11.40;88.40;;;;;;4925172;29;20043;-72
2021/06/13 10:34:39;;;;;;;1.55;0.95;;;11.50;88.40;;;;;;4925209;29;20071;-72
2021/06/13 10:37:10;;;;;;;2.42;0.85;;;11.40;88.40;;;;;;4928451;29;20146;-73
2021/06/13 10:39:39;;;;;;;1.00;0.70;;;11.40;88.50;;;;;;4924622;29;20020;-72
2021/06/13 10:42:15;;;;;;;2.40;1.42;;;11.40;88.90;;;;;;4927727;29;20028;-71
2021/06/13 10:44:50;;;;;;;1.65;1.20;;;11.40;89.20;;;;;;4925374;29;20032;-72
2021/06/13 10:47:18;;;;;;;3.42;1.00;;;11.40;89.00;;;;;;4905428;29;20123;-72
2021/06/13 10:50:00;;;;;;;1.52;1.00;;;11.30;89.10;;;;;;4926092;29;20024;-70
2021/06/13 10:52:31;;;;;;;1.95;1.30;;;11.30;89.20;;;;;;4928072;29;20366;-72
2021/06/13 10:55:00;;;;;;;2.17;1.55;;;11.30;89.20;;;;;;4911896;29;20032;-72
2021/06/13 10:57:30;;;;;;;1.67;1.23;;;11.20;89.80;;;;;;4918096;28;20498;-72
2021/06/13 11:00:18;;;;;;;2.15;0.95;;;11.20;90.10;;;;;;4926159;29;20023;-73
2021/06/13 11:02:57;;;;;;;1.33;0.70;;;11.10;90.20;;;;;;4928787;29;20040;-72
2021/06/13 11:05:38;;;;;;;1.25;0.82;;;11.00;90.40;;;;;;4925562;29;20375;-71
2021/06/13 11:08:06;;;;;;;1.05;0.70;;;11.00;90.50;;;;;;4927212;29;20036;-70
2021/06/13 11:10:33;;;;;;;0.75;0.50;;;10.90;90.60;;;;;;4925910;29;20028;-71
2021/06/13 11:13:13;;;;;;;0.80;0.57;;;10.90;90.80;;;;;;4925322;29;20034;-72
2021/06/13 11:15:49;;;;;;;2.28;1.17;;;10.80;90.70;;;;;;4924008;29;20022;-71
2021/06/13 11:18:18;;;;;;;3.63;1.67;;;10.80;90.60;;;;;;4922703;29;20066;-72
2021/06/13 11:21:19;;;;;;;2.55;1.15;;;10.80;90.70;;;;;;4925093;29;20027;-73
2021/06/13 11:23:48;;;;;;;2.20;0.98;;;10.80;90.70;;;;;;4923971;29;20406;-72
2021/06/13 11:26:36;;;;;;;1.67;0.88;;;10.80;90.90;;;;;;4923515;29;20048;-73
2021/06/13 11:29:04;;;;;;;1.20;0.52;;;10.80;90.80;;;;;;4925574;28;20036;-71
2021/06/13 11:31:32;;;;;;;0.88;0.60;;;10.80;90.70;;;;;;4928497;29;20038;-72
2021/06/13 11:34:03;;;;;;;2.78;0.93;;;10.70;90.80;;;;;;4929655;29;20038;-72
2021/06/13 11:36:33;;;;;;;3.63;2.00;;;10.70;91.00;;;;;;4927604;29;20040;-75
2021/06/13 11:39:06;;;;;;;3.83;2.40;;;10.70;91.10;;;;;;4931927;29;20019;-72
2021/06/13 11:41:45;;;;;;;3.75;1.90;;;10.50;91.30;;;;;;4926636;29;20031;-71
2021/06/13 11:44:20;;;;;;;5.18;2.22;;;10.50;91.60;;;;;;4912583;29;20426;-75
2021/06/13 11:46:49;;;;;;;4.28;2.30;;;10.40;91.70;;;;;;4931269;29;20436;-73
2021/06/13 11:49:19;;;;;;;5.38;2.05;;;10.40;91.90;;;;;;4926241;29;20038;-73
2021/06/13 11:51:53;;;;;;;11.43;2.42;;;10.30;92.00;;;;;;4929429;29;20499;-72
2021/06/13 11:54:37;;;;;;;2.90;2.13;;;10.30;92.20;;;;;;4928415;29;20039;-71
2021/06/13 11:57:27;;;;;;;4.50;2.53;;;10.20;92.40;;;;;;4928317;29;20036;-72
2021/06/13 11:59:55;;;;;;;4.20;2.75;;;10.10;92.50;;;;;;4927048;29;20122;-73
2021/06/13 12:02:23;;;;;;;4.05;2.70;;;10.10;92.80;;;;;;4929706;29;20707;-72
2021/06/13 12:04:51;;;;;;;5.50;3.05;;;10.00;93.00;;;;;;4927758;29;20039;-74
2021/06/13 12:07:21;;;;;;;5.45;3.25;;;10.00;93.10;;;;;;4929051;29;20020;-74
2021/06/13 12:09:50;;;;;;;6.35;3.10;;;9.90;93.20;;;;;;4932585;29;20566;-73
2021/06/13 12:12:24;;;;;;;5.03;3.38;;;9.80;93.40;;;;;;4931968;29;20034;-73
2021/06/13 12:14:59;;;;;;;4.20;3.22;;;9.70;93.70;;;;;;4928132;29;20054;-72
2021/06/13 12:17:27;;;;;;;11.63;5.07;;;9.50;94.20;;;;;;4928051;29;20082;-72
2021/06/13 12:20:01;;;;;;;6.88;3.70;;;9.50;94.40;;;;;;4927103;29;20035;-73
2021/06/13 12:27:52;;;;;;;6.35;3.53;;;9.20;95.00;;;;;;4930714;29;20537;-74
2021/06/13 12:30:23;;;;;;;5.45;3.80;;;9.10;95.10;;;;;;4921679;28;20047;-73
2021/06/13 12:33:05;;;;;;;5.80;3.72;;;9.10;95.60;;;;;;4922184;29;20562;-73
2021/06/13 12:35:37;;;;;;;8.48;3.42;;;9.00;95.50;;;;;;4928807;29;20446;-72
2021/06/13 12:38:08;;;;;;;6.30;3.28;;;9.10;95.70;;;;;;4927328;29;20102;-70
2021/06/13 12:40:46;;;;;;;4.07;3.20;;;9.00;95.70;;;;;;4928898;29;20028;-73
2021/06/13 12:43:15;;;;;;;10.60;4.88;;;9.00;95.60;;;;;;4925131;29;20664;-75
2021/06/13 12:45:45;;;;;;;13.65;7.45;;;9.00;95.50;;;;;;4931211;29;20035;-73
2021/06/13 12:48:13;;;;;;;14.70;7.43;;;8.90;95.40;;;;;;4924870;29;20379;-72
2021/06/13 12:50:44;;;;;;;12.23;6.72;;;8.90;95.50;;;;;;4923206;29;20055;-72
2021/06/13 12:53:15;;;;;;;13.32;7.93;;;8.90;95.70;;;;;;4926578;29;20028;-72
2021/06/13 12:56:02;;;;;;;12.52;7.55;;;8.90;95.80;;;;;;4915852;29;20039;-73
2021/06/13 12:58:30;;;;;;;;;;;8.80;95.90;;;;;;4931383;29;20047;-70
2021/06/13 13:00:58;;;;;;;14.40;7.18;;;8.70;96.10;;;;;;4920367;28;19929;-72
2021/06/13 13:03:26;;;;;;;15.20;7.32;;;8.70;96.40;;;;;;4930177;29;20054;-72
2021/06/13 13:06:06;;;;;;;11.57;6.50;;;8.60;96.50;;;;;;4929897;29;20078;-74
2021/06/13 13:09:04;;;;;;;13.55;7.53;;;8.60;96.40;;;;;;4931199;29;20055;-72
2021/06/13 13:11:33;;;;;;;16.60;7.40;;;8.50;96.50;;;;;;4930673;29;20043;-72